createdAt,value
2022-09-15T00:01:01.327Z,99.41
2022-09-15T00:02:17.812Z,99.52
2022-09-15T00:03:34.302Z,99.62
2022-09-15T00:04:50.942Z,99.52
2022-09-15T00:06:07.322Z,99.52
2022-09-15T00:07:23.749Z,99.52
2022-09-15T00:08:40.151Z,99.41
2022-09-15T00:09:56.531Z,99.41
2022-09-15T00:11:13.211Z,99.41
2022-09-15T00:12:29.652Z,99.46
2022-09-15T00:13:46.071Z,99.56
2022-09-15T00:15:02.473Z,99.66
2022-09-15T00:16:18.931Z,99.66
2022-09-15T00:17:35.582Z,99.66
2022-09-15T00:18:53.445Z,99.77
2022-09-15T00:20:09.822Z,99.77
2022-09-15T00:21:26.213Z,99.77
2022-09-15T00:22:42.634Z,99.77
2022-09-15T00:23:59.329Z,99.77
2022-09-15T00:25:15.945Z,99.66
2022-09-15T00:26:32.313Z,99.66
2022-09-15T00:27:48.724Z,99.66
2022-09-15T00:29:05.134Z,99.77
2022-09-15T00:30:21.785Z,99.87
2022-09-15T00:31:39.137Z,99.87
2022-09-15T00:32:55.563Z,99.87
2022-09-15T00:34:13.407Z,99.87
2022-09-15T00:35:29.791Z,99.77
2022-09-15T00:36:46.486Z,99.77
2022-09-15T00:38:02.886Z,99.77
2022-09-15T00:39:19.288Z,99.87
2022-09-15T00:40:35.668Z,99.97
2022-09-15T00:41:52.097Z,99.97
2022-09-15T00:43:08.902Z,99.97
2022-09-15T00:44:25.289Z,99.99
2022-09-15T00:45:41.735Z,99.99
2022-09-15T00:47:17.851Z,99.99
2022-09-15T00:48:19.507Z,99.99
2022-09-15T00:49:36.130Z,99.99
2022-09-15T00:50:52.561Z,99.99
2022-09-15T00:52:09.012Z,99.99
2022-09-15T00:53:25.451Z,99.99
2022-09-15T00:54:43.323Z,99.99
2022-09-15T00:56:00.004Z,99.99
2022-09-15T00:57:16.374Z,99.99
2022-09-15T00:58:32.814Z,99.99
2022-09-15T00:59:49.184Z,99.99
2022-09-15T01:01:05.639Z,99.99
2022-09-15T01:02:23.848Z,99.99
2022-09-15T01:03:40.311Z,99.99
2022-09-15T01:04:58.578Z,99.99
2022-09-15T01:06:15.264Z,99.99
2022-09-15T01:07:31.656Z,99.99
2022-09-15T01:08:48.380Z,99.91
2022-09-15T01:10:04.747Z,99.99
2022-09-15T01:11:21.186Z,99.99
2022-09-15T01:12:37.559Z,99.99
2022-09-15T01:13:53.962Z,99.99
2022-09-15T01:15:10.610Z,99.99
2022-09-15T01:16:27.086Z,99.99
2022-09-15T01:17:43.491Z,99.99
2022-09-15T01:18:59.879Z,99.99
2022-09-15T01:20:16.261Z,99.99
2022-09-15T01:21:33.024Z,99.99
2022-09-15T01:22:49.405Z,99.99
2022-09-15T01:24:05.793Z,99.99
2022-09-15T01:25:22.162Z,99.99
2022-09-15T01:26:38.591Z,99.99
2022-09-15T01:27:55.252Z,99.99
2022-09-15T01:29:11.650Z,99.99
2022-09-15T01:30:28.031Z,99.99
2022-09-15T01:31:44.512Z,99.99
2022-09-15T01:33:00.894Z,99.99
2022-09-15T01:34:17.572Z,99.99
2022-09-15T01:35:33.962Z,99.99
2022-09-15T01:36:50.393Z,99.99
2022-09-15T01:38:06.766Z,99.99
2022-09-15T01:39:23.155Z,99.99
2022-09-15T01:40:39.843Z,99.99
2022-09-15T01:41:56.235Z,99.99
2022-09-15T01:43:12.616Z,99.99
2022-09-15T01:44:29.010Z,99.99
2022-09-15T01:45:45.491Z,99.99
2022-09-15T01:47:02.200Z,99.99
2022-09-15T01:48:18.582Z,99.99
2022-09-15T01:49:34.999Z,99.99
2022-09-15T01:50:51.401Z,99.99
2022-09-15T01:52:07.802Z,99.99
2022-09-15T01:53:24.473Z,99.99
2022-09-15T01:54:40.890Z,99.99
2022-09-15T01:55:57.287Z,99.99
2022-09-15T01:57:13.669Z,99.99
2022-09-15T01:58:30.070Z,99.99
2022-09-15T01:59:46.828Z,99.99
2022-09-15T02:01:03.312Z,99.99
2022-09-15T02:02:19.722Z,99.99
2022-09-15T02:03:36.142Z,99.99
2022-09-15T02:04:52.539Z,99.99
2022-09-15T02:06:09.181Z,99.99
2022-09-15T02:07:25.581Z,99.99
2022-09-15T02:08:42.002Z,99.99
2022-09-15T02:09:58.413Z,99.99
2022-09-15T02:11:14.806Z,99.99
2022-09-15T02:12:31.476Z,99.99
2022-09-15T02:13:47.953Z,99.99
2022-09-15T02:15:05.806Z,99.99
2022-09-15T02:16:22.210Z,99.99
2022-09-15T02:17:38.654Z,99.99
2022-09-15T02:18:55.313Z,99.99
2022-09-15T02:20:11.707Z,99.99
2022-09-15T02:21:28.105Z,99.99
2022-09-15T02:22:44.561Z,99.99
2022-09-15T02:24:00.917Z,99.99
2022-09-15T02:25:17.566Z,99.99
2022-09-15T02:26:33.968Z,99.99
2022-09-15T02:27:51.878Z,99.99
2022-09-15T02:29:08.255Z,99.99
2022-09-15T02:30:24.674Z,99.99
2022-09-15T02:31:43.033Z,99.99
2022-09-15T02:32:59.429Z,99.99
2022-09-15T02:34:15.820Z,99.99
2022-09-15T02:35:32.209Z,99.99
2022-09-15T02:36:48.629Z,99.99
2022-09-15T02:38:05.309Z,99.99
2022-09-15T02:39:21.689Z,99.99
2022-09-15T02:40:39.541Z,99.99
2022-09-15T02:41:55.952Z,99.99
2022-09-15T02:43:12.357Z,99.99
2022-09-15T02:44:29.015Z,99.99
2022-09-15T02:45:45.442Z,99.99
2022-09-15T02:47:01.817Z,99.99
2022-09-15T02:48:18.222Z,99.99
2022-09-15T02:49:34.613Z,99.99
2022-09-15T02:50:51.294Z,99.99
2022-09-15T02:52:07.719Z,99.99
2022-09-15T02:53:24.094Z,99.99
2022-09-15T02:54:40.482Z,99.99
2022-09-15T02:55:56.876Z,99.99
2022-09-15T02:57:13.593Z,99.99
2022-09-15T02:58:29.958Z,99.99
2022-09-15T02:59:46.346Z,99.99
2022-09-15T03:01:02.859Z,99.99
2022-09-15T03:02:19.416Z,99.99
2022-09-15T03:03:38.842Z,99.99
2022-09-15T03:04:57.339Z,99.99
2022-09-15T03:06:13.787Z,99.99
2022-09-15T03:07:30.230Z,99.99
2022-09-15T03:08:46.601Z,99.99
2022-09-15T03:10:03.255Z,99.99
2022-09-15T03:11:19.749Z,99.99
2022-09-15T03:12:36.129Z,99.99
2022-09-15T03:13:52.540Z,99.99
2022-09-15T03:15:08.901Z,99.99
2022-09-15T03:16:25.669Z,99.99
2022-09-15T03:17:42.042Z,99.99
2022-09-15T03:18:58.448Z,99.99
2022-09-15T03:20:14.832Z,99.99
2022-09-15T03:21:31.260Z,99.99
2022-09-15T03:22:47.905Z,99.99
2022-09-15T03:24:04.304Z,99.99
2022-09-15T03:25:20.691Z,99.99
2022-09-15T03:26:37.130Z,99.99
2022-09-15T03:27:53.508Z,99.99
2022-09-15T03:29:10.167Z,99.99
2022-09-15T03:30:26.557Z,99.99
2022-09-15T03:31:43.049Z,99.99
2022-09-15T03:32:59.425Z,99.99
2022-09-15T03:34:17.307Z,99.99
2022-09-15T03:35:33.963Z,99.99
2022-09-15T03:36:50.347Z,99.99
2022-09-15T03:38:06.739Z,99.99
2022-09-15T03:39:23.156Z,99.99
2022-09-15T03:40:39.555Z,99.99
2022-09-15T03:41:56.235Z,99.99
2022-09-15T03:43:18.038Z,99.99
2022-09-15T03:44:33.896Z,99.99
2022-09-15T03:45:50.352Z,99.99
2022-09-15T03:47:06.738Z,99.99
2022-09-15T03:48:23.432Z,99.99
2022-09-15T03:49:39.830Z,99.99
2022-09-15T03:50:57.190Z,99.99
2022-09-15T03:52:13.580Z,99.99
2022-09-15T03:53:29.964Z,99.99
2022-09-15T03:54:46.631Z,99.99
2022-09-15T03:56:03.041Z,99.99
2022-09-15T03:57:20.902Z,99.99
2022-09-15T03:58:37.282Z,99.99
2022-09-15T03:59:53.681Z,99.99
2022-09-15T04:01:10.412Z,99.99
2022-09-15T04:02:26.979Z,99.99
2022-09-15T04:03:47.585Z,99.99
2022-09-15T04:05:04.633Z,99.99
2022-09-15T04:06:23.017Z,99.99
2022-09-15T04:07:39.684Z,99.99
2022-09-15T04:08:57.537Z,99.99
2022-09-15T04:10:13.934Z,99.99
2022-09-15T04:11:30.345Z,99.99
2022-09-15T04:12:46.742Z,99.99
2022-09-15T04:14:03.434Z,99.99
2022-09-15T04:15:19.861Z,99.99
2022-09-15T04:16:36.468Z,99.99
2022-09-15T04:17:52.869Z,99.99
2022-09-15T04:19:10.716Z,99.99
2022-09-15T04:20:28.571Z,99.99
2022-09-15T04:21:46.490Z,99.99
2022-09-15T04:23:04.337Z,99.99
2022-09-15T04:24:22.192Z,99.99
2022-09-15T04:25:38.869Z,99.99
2022-09-15T04:26:56.731Z,99.99
2022-09-15T04:28:14.596Z,99.99
2022-09-15T04:29:32.441Z,99.99
2022-09-15T04:30:50.316Z,99.99
2022-09-15T04:32:08.466Z,99.99
2022-09-15T04:33:26.411Z,99.99
2022-09-15T04:34:44.246Z,99.99
2022-09-15T04:36:02.123Z,99.99
2022-09-15T04:37:19.982Z,99.99
2022-09-15T04:38:38.128Z,99.99
2022-09-15T04:39:56.011Z,99.99
2022-09-15T04:41:13.933Z,99.99
2022-09-15T04:42:31.762Z,99.99
2022-09-15T04:43:49.626Z,99.99
2022-09-15T04:45:06.468Z,99.99
2022-09-15T04:46:24.522Z,99.99
2022-09-15T04:47:42.363Z,99.99
2022-09-15T04:48:58.815Z,99.99
2022-09-15T04:50:17.221Z,99.99
2022-09-15T04:51:35.442Z,99.99
2022-09-15T04:52:53.799Z,99.99
2022-09-15T04:54:11.731Z,99.99
2022-09-15T04:55:29.756Z,99.99
2022-09-15T04:56:46.198Z,99.99
2022-09-15T04:58:04.387Z,99.99
2022-09-15T04:59:22.417Z,99.99
2022-09-15T05:00:39.081Z,99.99
2022-09-15T05:01:55.630Z,99.99
2022-09-15T05:03:14.571Z,99.99
2022-09-15T05:04:32.850Z,99.99
2022-09-15T05:05:50.181Z,99.99
2022-09-15T05:07:09.669Z,99.99
2022-09-15T05:08:26.201Z,99.98
2022-09-15T05:09:44.474Z,99.99
2022-09-15T05:11:00.988Z,99.99
2022-09-15T05:12:19.424Z,99.99
2022-09-15T05:13:39.842Z,99.99
2022-09-15T05:14:57.798Z,99.98
2022-09-15T05:16:16.284Z,99.98
2022-09-15T05:17:32.763Z,99.98
2022-09-15T05:18:50.681Z,99.98
2022-09-15T05:20:09.084Z,99.98
2022-09-15T05:21:25.837Z,99.98
2022-09-15T05:22:44.199Z,99.98
2022-09-15T05:24:02.347Z,99.98
2022-09-15T05:25:21.432Z,99.88
2022-09-15T05:26:39.886Z,99.73
2022-09-15T05:27:57.541Z,99.77
2022-09-15T05:29:16.230Z,99.63
2022-09-15T05:30:40.544Z,99.67
2022-09-15T05:31:58.455Z,99.73
2022-09-15T05:33:18.337Z,99.73
2022-09-15T05:34:36.467Z,99.63
2022-09-15T05:35:53.169Z,99.52
2022-09-15T05:37:11.638Z,99.52
2022-09-15T05:38:28.203Z,99.52
2022-09-15T05:39:47.196Z,99.63
2022-09-15T05:41:05.560Z,99.63
2022-09-15T05:42:23.924Z,99.52
2022-09-15T05:43:42.479Z,99.52
2022-09-15T05:44:59.096Z,99.63
2022-09-15T05:46:15.763Z,99.63
2022-09-15T05:47:34.113Z,99.63
2022-09-15T05:48:53.074Z,99.52
2022-09-15T05:50:10.503Z,99.52
2022-09-15T05:51:30.547Z,99.63
2022-09-15T05:52:49.600Z,99.63
2022-09-15T05:54:09.780Z,99.52
2022-09-15T05:55:27.829Z,99.42
2022-09-15T05:56:48.603Z,99.52
2022-09-15T05:58:08.584Z,99.52
2022-09-15T05:59:27.132Z,99.48
2022-09-15T06:04:27.984Z,99.27
2022-09-15T06:05:47.111Z,99.07
2022-09-15T06:07:06.314Z,98.97
2022-09-15T06:08:27.321Z,98.97
2022-09-15T06:09:50.299Z,98.92
2022-09-15T06:11:08.881Z,98.92
2022-09-15T06:12:28.457Z,98.92
2022-09-15T06:13:48.009Z,98.82
2022-09-15T06:15:07.537Z,98.32
2022-09-15T06:16:28.438Z,98.41
2022-09-15T06:17:48.257Z,98.41
2022-09-15T06:19:06.724Z,98.32
2022-09-15T06:20:24.625Z,98.32
2022-09-15T06:21:44.068Z,98.32
2022-09-15T06:23:03.051Z,98.27
2022-09-15T06:24:21.547Z,98.16
2022-09-15T06:25:43.304Z,98.27
2022-09-15T06:27:03.703Z,98.07
2022-09-15T06:28:21.685Z,97.86
2022-09-15T06:29:40.214Z,97.86
2022-09-15T06:31:01.091Z,97.66
2022-09-15T06:32:20.020Z,97.35
2022-09-15T06:33:40.395Z,97.25
2022-09-15T06:34:58.416Z,97.35
2022-09-15T06:36:16.475Z,97.35
2022-09-15T06:37:36.348Z,97.25
2022-09-15T06:40:47.283Z,97.31
2022-09-15T06:42:09.546Z,97.25
2022-09-15T06:43:29.545Z,97.41
2022-09-15T06:44:47.187Z,97.41
2022-09-15T06:46:06.883Z,97.31
2022-09-15T06:47:25.363Z,97.00
2022-09-15T06:48:48.132Z,96.90
2022-09-15T06:50:07.186Z,96.90
2022-09-15T06:51:27.364Z,96.80
2022-09-15T06:52:46.699Z,96.60
2022-09-15T06:54:04.584Z,96.80
2022-09-15T06:55:22.994Z,96.80
2022-09-15T06:56:42.516Z,96.80
2022-09-15T06:58:03.378Z,96.70
2022-09-15T06:59:26.713Z,96.60
2022-09-15T07:00:50.010Z,96.60
2022-09-15T07:02:08.779Z,96.70
2022-09-15T07:03:27.023Z,96.35
2022-09-15T07:04:55.485Z,96.25
2022-09-15T07:06:13.860Z,96.45
2022-09-15T07:07:32.809Z,96.35
2022-09-15T07:08:52.546Z,96.25
2022-09-15T07:12:03.361Z,95.64
2022-09-15T07:13:21.857Z,95.54
2022-09-15T07:14:40.615Z,95.23
2022-09-15T07:17:55.159Z,95.43
2022-09-15T07:19:13.307Z,95.43
2022-09-15T07:20:36.224Z,95.54
2022-09-15T07:21:57.572Z,95.74
2022-09-15T07:23:16.154Z,95.43
2022-09-15T07:24:34.923Z,95.09
2022-09-15T07:25:53.957Z,95.09
2022-09-15T07:27:13.025Z,94.98
2022-09-15T07:28:33.145Z,95.19
2022-09-15T07:29:54.127Z,95.19
2022-09-15T07:31:14.186Z,94.89
2022-09-15T07:32:32.910Z,94.68
2022-09-15T07:33:53.237Z,94.74
2022-09-15T07:35:12.821Z,94.43
2022-09-15T07:38:24.572Z,94.64
2022-09-15T07:39:43.148Z,94.64
2022-09-15T07:41:05.143Z,94.34
2022-09-15T07:42:30.072Z,94.03
2022-09-15T07:45:41.284Z,92.91
2022-09-15T07:47:02.047Z,93.22
2022-09-15T07:48:27.900Z,93.42
2022-09-15T07:49:50.665Z,93.38
2022-09-15T07:53:04.594Z,93.38
2022-09-15T07:54:22.973Z,93.18
2022-09-15T07:55:43.459Z,92.77
2022-09-15T07:57:06.720Z,92.52
2022-09-15T07:58:31.868Z,92.63
2022-09-15T07:59:50.430Z,92.72
2022-09-15T08:01:14.285Z,92.57
2022-09-15T08:02:41.097Z,92.93
2022-09-15T08:04:03.087Z,92.32
2022-09-15T08:05:22.555Z,91.82
2022-09-15T08:08:32.665Z,91.06
2022-09-15T08:09:58.558Z,90.86
2022-09-15T08:11:18.836Z,90.16
2022-09-15T08:16:29.225Z,89.30
2022-09-15T08:17:49.730Z,88.90
2022-09-15T08:21:01.461Z,88.29
2022-09-15T08:22:22.822Z,88.39
2022-09-15T08:25:34.635Z,87.08
2022-09-15T08:26:54.263Z,87.18
2022-09-15T08:28:19.452Z,87.48
2022-09-15T08:31:30.055Z,87.18
2022-09-15T08:34:42.604Z,85.72
2022-09-15T08:36:02.839Z,85.42
2022-09-15T08:39:13.726Z,86.33
2022-09-15T08:40:34.404Z,86.43
2022-09-15T08:43:45.499Z,85.93
2022-09-15T08:45:05.062Z,85.48
2022-09-15T08:46:23.683Z,84.97
2022-09-15T08:47:42.453Z,85.38
2022-09-15T08:49:04.383Z,85.88
2022-09-15T08:52:14.474Z,85.48
2022-09-15T08:55:27.734Z,84.97
2022-09-15T08:56:47.501Z,85.28
2022-09-15T09:01:56.446Z,84.57
2022-09-15T09:03:22.942Z,84.06
2022-09-15T09:10:18.238Z,83.22
2022-09-15T09:11:38.019Z,82.61
2022-09-15T09:12:59.177Z,81.87
2022-09-15T09:14:20.368Z,81.26
2022-09-15T09:15:40.670Z,79.94
2022-09-15T09:16:59.567Z,79.64
2022-09-15T09:20:11.967Z,80.01
2022-09-15T09:21:34.582Z,79.77
2022-09-15T09:22:53.670Z,76.95
2022-09-15T09:24:21.245Z,75.34
2022-09-15T09:25:42.043Z,76.54
2022-09-15T09:27:04.522Z,76.54
2022-09-15T09:30:16.539Z,74.73
2022-09-15T09:33:25.513Z,74.79
2022-09-15T09:34:45.215Z,74.49
2022-09-15T09:36:05.929Z,74.08
2022-09-15T09:37:23.372Z,74.79
2022-09-15T09:38:45.801Z,74.59
2022-09-15T09:40:08.443Z,73.25
2022-09-15T09:41:31.653Z,73.25
2022-09-15T09:42:53.091Z,72.94
2022-09-15T09:44:15.831Z,71.94
2022-09-15T09:45:35.144Z,68.98
2022-09-15T09:46:57.275Z,68.18
2022-09-15T09:48:16.187Z,67.68
2022-09-15T09:49:35.229Z,64.35
2022-09-15T09:50:54.255Z,63.24
2022-09-15T09:52:13.218Z,63.82
2022-09-15T09:53:32.168Z,64.12
2022-09-15T09:54:55.644Z,62.61
2022-09-15T09:56:15.637Z,63.48
2022-09-15T09:59:29.120Z,62.48
2022-09-15T10:00:47.884Z,62.58
2022-09-15T10:02:05.856Z,62.18
2022-09-15T10:03:27.119Z,61.27
2022-09-15T10:04:48.875Z,61.57
2022-09-15T10:06:08.145Z,61.14
2022-09-15T10:07:27.664Z,60.84
2022-09-15T10:08:46.188Z,60.53
2022-09-15T10:10:08.558Z,60.71
2022-09-15T10:11:25.795Z,58.40
2022-09-15T10:12:46.007Z,58.80
2022-09-15T10:14:15.017Z,59.10
2022-09-15T10:15:33.542Z,58.60
2022-09-15T10:16:55.715Z,59.10
2022-09-15T10:18:16.012Z,58.70
2022-09-15T10:21:29.578Z,59.41
2022-09-15T10:22:47.607Z,59.60
2022-09-15T10:24:06.394Z,58.50
2022-09-15T10:25:39.419Z,58.70
2022-09-15T10:26:47.441Z,56.86
2022-09-15T10:28:05.061Z,57.39
2022-09-15T10:29:23.781Z,57.09
2022-09-15T10:30:51.562Z,56.19
2022-09-15T10:32:10.168Z,56.79
2022-09-15T10:33:29.256Z,57.62
2022-09-15T10:34:54.095Z,58.42
2022-09-15T10:36:19.394Z,59.33
2022-09-15T10:37:37.466Z,60.84
2022-09-15T10:39:07.165Z,60.84
2022-09-15T10:40:29.026Z,60.74
2022-09-15T10:41:49.983Z,61.34
2022-09-15T10:43:11.182Z,61.65
2022-09-15T10:46:24.856Z,61.57
2022-09-15T10:47:46.148Z,61.98
2022-09-15T10:49:04.296Z,62.88
2022-09-15T10:50:24.546Z,63.31
2022-09-15T10:51:45.650Z,63.11
2022-09-15T10:53:03.785Z,63.21
2022-09-15T10:54:23.876Z,63.82
2022-09-15T10:55:52.958Z,64.25
2022-09-15T10:57:06.688Z,63.65
2022-09-15T10:58:30.651Z,64.95
2022-09-15T11:01:41.866Z,64.28
2022-09-15T11:03:01.920Z,64.07
2022-09-15T11:04:22.318Z,64.07
2022-09-15T11:05:42.016Z,64.92
2022-09-15T11:07:04.912Z,65.05
2022-09-15T11:08:24.643Z,64.95
2022-09-15T11:09:44.212Z,65.78
2022-09-15T11:11:03.703Z,65.99
2022-09-15T11:12:24.789Z,66.49
2022-09-15T11:15:37.167Z,67.50
2022-09-15T11:18:45.958Z,67.63
2022-09-15T11:20:04.377Z,68.33
2022-09-15T11:21:22.773Z,68.44
2022-09-15T11:22:43.323Z,68.13
2022-09-15T11:24:02.944Z,67.73
2022-09-15T11:25:22.203Z,68.41
2022-09-15T11:26:39.586Z,68.21
2022-09-15T11:27:58.029Z,68.81
2022-09-15T11:29:16.412Z,68.30
2022-09-15T11:30:34.270Z,68.01
2022-09-15T11:31:53.573Z,67.90
2022-09-15T11:33:12.029Z,67.57
2022-09-15T11:34:30.571Z,66.66
2022-09-15T11:35:49.463Z,66.96
2022-09-15T11:37:08.709Z,67.77
2022-09-15T11:38:28.780Z,67.23
2022-09-15T11:39:48.307Z,66.42
2022-09-15T11:41:06.903Z,65.72
2022-09-15T11:42:24.805Z,64.58
2022-09-15T11:43:43.459Z,65.09
2022-09-15T11:45:03.934Z,65.09
2022-09-15T11:46:21.249Z,64.89
2022-09-15T11:47:39.267Z,64.65
2022-09-15T11:48:57.244Z,63.95
2022-09-15T11:50:15.856Z,64.42
2022-09-15T11:51:33.210Z,63.62
2022-09-15T11:52:51.117Z,63.92
2022-09-15T11:54:09.509Z,64.42
2022-09-15T11:55:28.411Z,64.52
2022-09-15T11:56:46.563Z,63.08
2022-09-15T12:00:02.507Z,60.48
2022-09-15T12:01:21.332Z,60.68
2022-09-15T12:02:41.437Z,59.78
2022-09-15T12:03:59.962Z,60.15
2022-09-15T12:05:19.749Z,59.75
2022-09-15T12:06:44.784Z,60.05
2022-09-15T12:08:02.171Z,59.12
2022-09-15T12:09:20.700Z,58.54
2022-09-15T12:10:42.833Z,59.01
2022-09-15T12:12:02.195Z,58.62
2022-09-15T12:13:22.241Z,58.69
2022-09-15T12:14:40.496Z,57.68
2022-09-15T12:16:05.294Z,58.09
2022-09-15T12:19:15.117Z,57.26
2022-09-15T12:20:35.096Z,57.76
2022-09-15T12:21:53.929Z,57.26
2022-09-15T12:23:15.498Z,57.56
2022-09-15T12:26:33.241Z,55.57
2022-09-15T12:27:51.966Z,56.10
2022-09-15T12:29:12.212Z,55.63
2022-09-15T12:30:35.821Z,56.76
2022-09-15T12:31:53.885Z,56.96
2022-09-15T12:33:11.366Z,56.96
2022-09-15T12:38:13.228Z,58.36
2022-09-15T12:39:32.650Z,58.18
2022-09-15T12:40:53.369Z,58.89
2022-09-15T12:42:11.411Z,59.26
2022-09-15T12:43:30.036Z,56.58
2022-09-15T12:44:47.551Z,57.33
2022-09-15T12:46:11.488Z,56.10
2022-09-15T12:47:31.281Z,55.85
2022-09-15T12:48:53.295Z,54.17
2022-09-15T12:50:11.744Z,54.60
2022-09-15T12:51:29.721Z,54.07
2022-09-15T12:52:48.855Z,54.50
2022-09-15T12:54:08.552Z,55.32
2022-09-15T12:55:35.538Z,56.23
2022-09-15T12:56:53.836Z,55.25
2022-09-15T12:58:21.100Z,56.45
2022-09-15T12:59:38.246Z,55.63
2022-09-15T13:01:17.044Z,54.80
2022-09-15T13:02:23.222Z,55.17
2022-09-15T13:03:44.206Z,53.42
2022-09-15T13:05:02.619Z,52.82
2022-09-15T13:08:16.578Z,52.09
2022-09-15T13:09:35.062Z,51.82
2022-09-15T13:12:43.243Z,52.44
2022-09-15T13:14:03.364Z,52.47
2022-09-15T13:15:19.884Z,53.19
2022-09-15T13:16:38.927Z,54.20
2022-09-15T13:17:56.895Z,54.43
2022-09-15T13:19:16.998Z,55.32
2022-09-15T13:20:34.955Z,56.02
2022-09-15T13:21:55.306Z,56.45
2022-09-15T13:23:14.924Z,56.13
2022-09-15T13:24:34.409Z,55.63
2022-09-15T13:25:53.544Z,55.85
2022-09-15T13:27:12.441Z,56.05
2022-09-15T13:28:32.607Z,56.05
2022-09-15T13:29:49.518Z,55.65
2022-09-15T13:31:08.170Z,55.73
2022-09-15T13:32:27.021Z,55.75
2022-09-15T13:35:17.546Z,56.76
2022-09-15T13:38:03.690Z,56.56
2022-09-15T13:38:13.637Z,56.26
2022-09-15T13:39:17.133Z,57.06
2022-09-15T13:40:35.146Z,56.56
2022-09-15T13:41:54.632Z,56.26
2022-09-15T13:43:12.591Z,56.15
2022-09-15T13:44:30.826Z,55.98
2022-09-15T13:45:54.644Z,56.48
2022-09-15T13:47:16.763Z,56.26
2022-09-15T13:48:33.298Z,56.35
2022-09-15T13:49:51.937Z,56.88
2022-09-15T13:51:09.831Z,57.28
2022-09-15T13:52:28.276Z,57.68
2022-09-15T13:53:47.190Z,57.68
2022-09-15T13:55:05.670Z,58.01
2022-09-15T13:56:23.651Z,58.81
2022-09-15T13:59:14.158Z,57.61
2022-09-15T14:02:21.188Z,58.01
2022-09-15T14:03:39.223Z,58.24
2022-09-15T14:04:58.504Z,58.64
2022-09-15T14:06:16.003Z,58.92
2022-09-15T14:07:35.213Z,58.51
2022-09-15T14:08:52.621Z,58.51
2022-09-15T14:10:10.003Z,59.01
2022-09-15T14:11:28.407Z,59.42
2022-09-15T14:12:47.143Z,59.32
2022-09-15T14:14:05.576Z,59.32
2022-09-15T14:15:23.394Z,59.72
2022-09-15T14:16:40.809Z,58.51
2022-09-15T14:18:00.091Z,58.84
2022-09-15T14:19:18.544Z,59.14
2022-09-15T14:20:35.214Z,59.85
2022-09-15T14:21:58.299Z,59.95
2022-09-15T14:23:15.668Z,59.75
2022-09-15T14:24:35.126Z,59.34
2022-09-15T14:25:51.825Z,59.25
2022-09-15T14:27:10.559Z,58.84
2022-09-15T14:28:31.617Z,58.94
2022-09-15T14:29:51.641Z,59.72
2022-09-15T14:31:11.101Z,58.31
2022-09-15T14:32:32.095Z,58.42
2022-09-15T14:33:52.044Z,56.30
2022-09-15T14:37:02.579Z,56.58
2022-09-15T14:38:21.738Z,55.20
2022-09-15T14:39:41.628Z,55.71
2022-09-15T14:40:59.967Z,55.53
2022-09-15T14:42:21.085Z,56.74
2022-09-15T14:43:40.532Z,57.34
2022-09-15T14:46:23.947Z,56.13
2022-09-15T14:49:33.967Z,55.40
2022-09-15T14:50:58.055Z,55.91
2022-09-15T14:52:17.078Z,55.80
2022-09-15T14:53:37.184Z,55.80
2022-09-15T14:54:58.278Z,56.03
2022-09-15T14:56:19.628Z,56.34
2022-09-15T14:57:38.172Z,55.96
2022-09-15T14:58:56.783Z,57.37
2022-09-15T15:00:14.169Z,56.69
2022-09-15T15:01:33.612Z,56.59
2022-09-15T15:02:51.965Z,56.89
2022-09-15T15:04:11.336Z,57.59
2022-09-15T15:05:29.667Z,57.02
2022-09-15T15:06:49.047Z,57.32
2022-09-15T15:08:07.976Z,58.42
2022-09-15T15:09:27.847Z,58.22
2022-09-15T15:10:45.183Z,58.42
2022-09-15T15:12:04.526Z,58.12
2022-09-15T15:13:24.188Z,58.02
2022-09-15T15:14:43.570Z,58.42
2022-09-15T15:16:01.001Z,59.23
2022-09-15T15:17:19.811Z,59.03
2022-09-15T15:18:37.620Z,59.13
2022-09-15T15:19:56.502Z,59.46
2022-09-15T15:21:14.890Z,59.43
2022-09-15T15:22:33.212Z,60.16
2022-09-15T15:23:51.042Z,59.96
2022-09-15T15:25:09.724Z,60.49
2022-09-15T15:28:18.673Z,60.89
2022-09-15T15:29:38.023Z,60.60
2022-09-15T15:30:56.862Z,60.69
2022-09-15T15:32:14.772Z,60.87
2022-09-15T15:33:32.875Z,59.89
2022-09-15T15:34:51.195Z,59.08
2022-09-15T15:36:09.549Z,58.78
2022-09-15T15:37:27.376Z,59.28
2022-09-15T15:38:47.578Z,58.98
2022-09-15T15:40:06.349Z,58.18
2022-09-15T15:41:24.694Z,58.18
2022-09-15T15:42:43.034Z,58.21
2022-09-15T15:44:01.469Z,58.41
2022-09-15T15:45:19.106Z,58.81
2022-09-15T15:46:37.427Z,59.01
2022-09-15T15:47:55.341Z,59.31
2022-09-15T15:49:13.670Z,59.31
2022-09-15T15:50:33.501Z,59.64
2022-09-15T15:51:51.111Z,59.82
2022-09-15T15:53:09.500Z,59.72
2022-09-15T15:54:27.855Z,60.05
2022-09-15T15:55:45.643Z,60.25
2022-09-15T15:57:03.480Z,60.45
2022-09-15T15:58:21.105Z,60.75
2022-09-15T15:59:39.424Z,60.85
2022-09-15T16:00:57.979Z,61.16
2022-09-15T16:02:16.942Z,61.05
2022-09-15T16:03:35.257Z,61.05
2022-09-15T16:04:52.857Z,61.16
2022-09-15T16:06:10.704Z,61.49
2022-09-15T16:07:33.147Z,61.46
2022-09-15T16:08:51.817Z,61.36
2022-09-15T16:10:09.638Z,61.79
2022-09-15T16:11:28.238Z,61.99
2022-09-15T16:12:46.148Z,61.69
2022-09-15T16:14:03.949Z,61.79
2022-09-15T16:15:21.781Z,61.79
2022-09-15T16:16:39.707Z,62.02
2022-09-15T16:17:57.581Z,62.32
2022-09-15T16:19:15.410Z,62.02
2022-09-15T16:20:33.233Z,61.72
2022-09-15T16:21:51.562Z,61.92
2022-09-15T16:23:10.213Z,62.22
2022-09-15T16:24:28.023Z,61.61
2022-09-15T16:25:45.873Z,62.05
2022-09-15T16:27:05.203Z,62.05
2022-09-15T16:28:23.073Z,62.35
2022-09-15T16:29:41.649Z,61.95
2022-09-15T16:31:00.063Z,62.55
2022-09-15T16:32:17.895Z,62.55
2022-09-15T16:33:38.146Z,62.55
2022-09-15T16:34:56.098Z,62.65
2022-09-15T16:36:13.947Z,62.79
2022-09-15T16:37:31.758Z,62.85
2022-09-15T16:38:49.104Z,63.36
2022-09-15T16:40:07.527Z,64.27
2022-09-15T16:41:25.100Z,64.27
2022-09-15T16:42:42.934Z,64.47
2022-09-15T16:44:00.281Z,64.78
2022-09-15T16:45:18.099Z,64.67
2022-09-15T16:46:35.954Z,64.78
2022-09-15T16:47:54.240Z,64.87
2022-09-15T16:49:12.080Z,65.18
2022-09-15T16:50:29.933Z,65.28
2022-09-15T16:51:47.799Z,65.11
2022-09-15T16:53:05.712Z,65.71
2022-09-15T16:54:24.332Z,65.81
2022-09-15T16:55:42.147Z,66.12
2022-09-15T16:56:59.984Z,66.12
2022-09-15T16:58:17.870Z,66.42
2022-09-15T16:59:36.727Z,66.62
2022-09-15T17:00:54.377Z,66.62
2022-09-15T17:02:12.242Z,66.52
2022-09-15T17:03:30.173Z,66.72
2022-09-15T17:04:48.017Z,66.62
2022-09-15T17:06:05.843Z,66.82
2022-09-15T17:07:23.455Z,67.23
2022-09-15T17:08:41.317Z,67.83
2022-09-15T17:09:59.179Z,67.93
2022-09-15T17:11:17.127Z,68.57
2022-09-15T17:12:35.480Z,68.98
2022-09-15T17:13:53.705Z,69.42
2022-09-15T17:15:11.569Z,69.82
2022-09-15T17:16:29.871Z,70.22
2022-09-15T17:17:47.707Z,70.32
2022-09-15T17:19:06.060Z,70.62
2022-09-15T17:20:23.919Z,70.93
2022-09-15T17:21:42.231Z,70.93
2022-09-15T17:23:00.219Z,71.03
2022-09-15T17:24:18.043Z,71.17
2022-09-15T17:25:35.655Z,71.47
2022-09-15T17:26:54.973Z,71.97
2022-09-15T17:28:13.364Z,71.97
2022-09-15T17:29:30.674Z,72.17
2022-09-15T17:30:49.107Z,72.48
2022-09-15T17:32:07.757Z,72.81
2022-09-15T17:33:25.116Z,73.02
2022-09-15T17:34:43.465Z,73.02
2022-09-15T17:36:01.296Z,73.12
2022-09-15T17:37:19.128Z,73.32
2022-09-15T17:38:36.733Z,73.72
2022-09-15T17:39:58.764Z,73.63
2022-09-15T17:41:16.918Z,73.32
2022-09-15T17:42:34.755Z,73.43
2022-09-15T17:43:52.649Z,73.32
2022-09-15T17:45:10.769Z,73.22
2022-09-15T17:46:28.636Z,73.43
2022-09-15T17:47:46.462Z,73.83
2022-09-15T17:49:04.324Z,74.07
2022-09-15T17:50:22.190Z,74.37
2022-09-15T17:51:40.800Z,73.93
2022-09-15T17:52:58.625Z,73.76
2022-09-15T17:54:16.434Z,73.36
2022-09-15T17:55:34.285Z,73.56
2022-09-15T17:56:52.092Z,73.76
2022-09-15T17:58:10.684Z,73.56
2022-09-15T17:59:28.494Z,73.76
2022-09-15T18:00:46.403Z,73.86
2022-09-15T18:02:04.293Z,73.69
2022-09-15T18:03:22.654Z,73.80
2022-09-15T18:04:40.517Z,73.76
2022-09-15T18:05:58.379Z,73.25
2022-09-15T18:07:16.205Z,73.25
2022-09-15T18:08:34.018Z,73.46
2022-09-15T18:09:52.386Z,73.56
2022-09-15T18:11:10.238Z,73.76
2022-09-15T18:12:28.578Z,73.15
2022-09-15T18:13:47.302Z,73.19
2022-09-15T18:15:03.971Z,73.39
2022-09-15T18:16:21.848Z,73.29
2022-09-15T18:17:38.242Z,73.19
2022-09-15T18:18:56.052Z,73.29